Aérodrome :
LOGIN :

S'inscrire | Disclaimer

   EN    FR    IT 

 










Légende :    VFR   VFR Marginal   IFR   IFR Intensif   IFR Très Intensif
Visi : 
Plafond : 
>= 8 km
>= 3000ft
5 à 8 km
1000 à 3000 ft
1500m à 5 km
500 à 1000 ft
800 à 1500m
200 à 500 ft
< 800m
< 200 ft
Symboles :   Orages  Brouillard  Fortes neiges  Fortes précipitations  Vent > 20 kt
SIGMETs :   Divers  Orages  Givrage  Turbulence  Onde Orograph.  Cendres Volcan.






- Altitude de l'aérodrome : 466 ft


LHPA - Pápa

DERNIER METAR :
  • 200445Z 34004KT 9999 SCT033 BKN083 08/07 Q1015 NOSIG RMK BLU

METARs EXPIRÉS :
  • 200415Z 01004KT CAVOK 08/06 Q1015 NOSIG RMK BLU
  • 200345Z 00000KT CAVOK 09/06 Q1015 NOSIG RMK BLU
  • 200315Z 01004KT CAVOK 09/07 Q1014 NOSIG RMK BLU
  • 200245Z 36002KT CAVOK 09/06 Q1014 NOSIG RMK BLU
  • 200215Z 33002KT CAVOK 09/06 Q1014 NOSIG RMK BLU

TAF TAF LHPA
Valide du 20 à 00h jusqu'au 21 à 00h UTC


192315Z 2000/2024 36007KT 9999 BKN043
TEMPO 2000/2012 VRB03KT
PROB40
TEMPO 2000/2007 8000 -RA SCT025 BKN040 OVC070
PROB30
TEMPO 2006/2010 9999 BKN025
BECMG 2011/2014 CAVOK
TEMPO 2012/2016 35011KT
BECMG 2016/2019 35005KT



MET'MAP, la Météo Aéronautique d'un coup d'oeil ! - Copyright ORBIFLY Décembre 2007 - Disclaimer

ORBIFLY MET'MAP TEAM :

Programmation & Développement : Alexandra Zaïnal
Sur une idée originale de : Baudouin d'Aumeries
Assistance à la programmation : Marc-Olivier Méhu
Soutien technique & logistique : Manuel Goepfert

Contact : metmap@orbifly.com




SOURCES & CREDITS :

   NOAA